Time;durP1;ratioP1;P1;durP2;ratioP2;P2;SDS_P1;SDS_P2;PMS_P1;PMS_P2;Temp;Humidity;BMP_temperature;BMP_pressure;BME280_temperature;BME280_humidity;BME280_pressure;Samples;Min_cycle;Max_cycle;Signal;HPM_P1;HPM_P2
2023/11/17 00:01:44;;;;;;;9.00;7.15;;;;;;;5.37;100.00;96667.53;1224797;75;2918245;-65
2023/11/17 00:04:18;;;;;;;7.95;6.20;;;;;;;5.62;100.00;96658.84;1225515;75;2921277;-62
2023/11/17 00:06:51;;;;;;;7.75;5.95;;;;;;;5.41;100.00;96646.38;1224976;75;2914395;-62
2023/11/17 00:09:24;;;;;;;8.20;5.90;;;;;;;5.65;100.00;96641.66;1225955;75;2912239;-65
2023/11/17 00:11:57;;;;;;;5.40;4.20;;;;;;;5.86;100.00;96647.91;1224720;75;2856816;-63
2023/11/17 00:14:32;;;;;;;5.60;3.75;;;;;;;5.84;100.00;96658.50;1225042;75;2954455;-63
2023/11/17 00:17:06;;;;;;;5.20;4.20;;;;;;;5.89;100.00;96647.00;1225464;75;2915737;-62
2023/11/17 00:19:39;;;;;;;5.65;4.10;;;;;;;5.76;100.00;96651.94;1225334;75;2915369;-63
2023/11/17 00:22:13;;;;;;;5.05;3.85;;;;;;;5.84;100.00;96655.78;1224898;75;2919625;-67
2023/11/17 00:24:46;;;;;;;4.70;3.55;;;;;;;5.84;100.00;96636.00;1225635;75;2924069;-64
2023/11/17 00:27:18;;;;;;;5.15;3.40;;;;;;;5.86;100.00;96628.91;1225610;75;2920976;-64
2023/11/17 00:29:54;;;;;;;3.60;2.70;;;;;;;5.87;100.00;96627.69;1225292;75;2912855;-62
2023/11/17 00:32:26;;;;;;;4.15;3.25;;;;;;;5.74;100.00;96624.50;1225564;75;2911604;-62
2023/11/17 00:34:59;;;;;;;6.35;3.85;;;;;;;5.54;100.00;96622.44;1225338;75;2916205;-64
2023/11/17 00:37:32;;;;;;;5.40;4.70;;;;;;;5.50;100.00;96619.16;1225084;75;2918841;-65
2023/11/17 00:40:06;;;;;;;8.70;4.80;;;;;;;5.42;100.00;96618.03;1225550;75;2916035;-64
2023/11/17 00:42:39;;;;;;;6.85;4.70;;;;;;;5.56;100.00;96630.88;1225273;75;2917210;-63
2023/11/17 00:45:14;;;;;;;6.90;4.10;;;;;;;5.55;100.00;96621.22;1224819;75;2918114;-63
2023/11/17 00:47:47;;;;;;;4.75;3.50;;;;;;;5.57;100.00;96615.31;1225856;75;2911516;-66
2023/11/17 00:50:20;;;;;;;4.40;3.45;;;;;;;5.74;100.00;96617.09;1225855;75;2918214;-63
2023/11/17 00:52:52;;;;;;;4.05;3.25;;;;;;;5.53;100.00;96618.22;1225189;75;2918253;-64
2023/11/17 00:55:25;;;;;;;4.25;3.20;;;;;;;5.44;100.00;96602.03;1225300;75;2918093;-62
2023/11/17 00:57:58;;;;;;;7.55;5.05;;;;;;;5.30;100.00;96587.22;1225443;75;2915195;-62
2023/11/17 01:00:33;;;;;;;5.65;4.50;;;;;;;5.28;100.00;96603.22;1225077;75;2926426;-63
2023/11/17 01:03:06;;;;;;;5.70;4.90;;;;;;;4.91;100.00;96609.69;1225663;75;2918590;-62
2023/11/17 01:05:39;;;;;;;10.20;5.70;;;;;;;4.84;100.00;96609.28;1225110;75;2912908;-62
2023/11/17 01:08:12;;;;;;;6.45;5.10;;;;;;;5.19;100.00;96595.91;1225736;75;2917149;-63
2023/11/17 01:10:44;;;;;;;7.60;5.80;;;;;;;4.76;100.00;96597.28;1225286;75;2914199;-62
2023/11/17 01:13:17;;;;;;;6.75;5.45;;;;;;;5.11;100.00;96600.94;1226814;75;2925386;-62
2023/11/17 01:15:52;;;;;;;5.00;4.30;;;;;;;4.93;100.00;96590.25;1225269;75;2915522;-62
2023/11/17 01:18:25;;;;;;;5.50;4.35;;;;;;;5.02;100.00;96587.44;1225368;75;2912044;-63
2023/11/17 01:20:58;;;;;;;4.85;3.90;;;;;;;5.10;100.00;96590.56;1224942;75;2911627;-63
2023/11/17 01:23:30;;;;;;;4.40;3.45;;;;;;;5.29;100.00;96596.56;1225092;75;2928818;-62
2023/11/17 01:26:03;;;;;;;4.00;3.30;;;;;;;5.01;100.00;96606.91;1225042;75;2915096;-63
2023/11/17 01:28:35;;;;;;;4.10;3.70;;;;;;;4.98;100.00;96595.03;1225740;75;2919147;-63
2023/11/17 01:31:11;;;;;;;4.45;3.40;;;;;;;4.83;100.00;96607.78;1225403;75;2922075;-65
2023/11/17 01:33:43;;;;;;;7.85;4.35;;;;;;;5.05;100.00;96607.47;1225137;75;2917612;-67
2023/11/17 01:36:17;;;;;;;7.05;4.30;;;;;;;4.96;100.00;96600.16;1225201;75;2917140;-61
2023/11/17 01:38:52;;;;;;;4.00;3.30;;;;;;;5.18;100.00;96582.81;1225044;75;2915991;-61
2023/11/17 01:41:25;;;;;;;3.45;2.95;;;;;;;5.03;100.00;96585.50;1225141;75;2917725;-63
2023/11/17 01:43:59;;;;;;;4.50;3.90;;;;;;;5.11;100.00;96573.81;1225309;75;2916684;-61
2023/11/17 01:46:35;;;;;;;5.50;4.40;;;;;;;4.62;100.00;96580.53;1225250;67;2915960;-61
2023/11/17 01:49:08;;;;;;;6.20;4.60;;;;;;;4.75;100.00;96574.09;1226173;75;2918430;-62
2023/11/17 01:51:41;;;;;;;5.80;4.75;;;;;;;4.84;100.00;96569.38;1219954;75;3250098;-64
2023/11/17 01:54:14;;;;;;;6.10;5.20;;;;;;;4.93;100.00;96575.91;1225319;75;2922834;-63
2023/11/17 01:56:47;;;;;;;5.85;4.95;;;;;;;4.84;100.00;96557.78;1226215;75;2914301;-61
2023/11/17 01:59:21;;;;;;;5.45;4.50;;;;;;;5.19;100.00;96568.03;1225262;75;2920321;-62
2023/11/17 02:01:56;;;;;;;4.60;4.10;;;;;;;4.89;100.00;96546.28;1224865;75;2916173;-61
2023/11/17 02:04:30;;;;;;;4.85;3.85;;;;;;;5.15;100.00;96543.03;1225079;75;2925365;-63
2023/11/17 02:07:15;;;;;;;4.10;3.10;;;;;;;5.17;100.00;96541.38;1225921;75;2916091;-64
2023/11/17 02:09:58;;;;;;;3.25;2.65;;;;;;;5.12;100.00;96553.63;1226058;75;2915696;-65
2023/11/17 02:12:46;;;;;;;3.15;2.80;;;;;;;5.12;100.00;96545.50;1224560;75;2913065;-64
2023/11/17 02:15:23;;;;;;;3.30;2.70;;;;;;;5.21;100.00;96547.34;1223409;75;2923903;-63
2023/11/17 02:18:04;;;;;;;3.35;2.70;;;;;;;5.00;100.00;96545.72;1222322;75;2913683;-64
2023/11/17 02:20:37;;;;;;;5.65;4.60;;;;;;;4.95;100.00;96544.41;1224117;75;2916812;-65
2023/11/17 02:23:15;;;;;;;3.70;3.30;;;;;;;5.11;100.00;96533.13;1225200;75;2920426;-64
2023/11/17 02:26:03;;;;;;;5.60;4.40;;;;;;;4.91;100.00;96541.91;1225763;75;2913910;-64
2023/11/17 02:28:50;;;;;;;4.75;4.00;;;;;;;5.17;100.00;96522.38;1225236;75;2921452;-64
2023/11/17 02:31:29;;;;;;;7.55;5.65;;;;;;;4.63;100.00;96522.38;1224586;75;2928293;-61
2023/11/17 02:34:04;;;;;;;6.60;5.50;;;;;;;4.74;100.00;96518.38;1224716;75;2928932;-64
2023/11/17 02:36:38;;;;;;;7.15;6.05;;;;;;;4.77;100.00;96528.31;1225452;75;2922180;-61
2023/11/17 02:39:25;;;;;;;8.50;6.60;;;;;;;4.78;100.00;96519.69;1224788;75;2916789;-63
2023/11/17 02:42:10;;;;;;;7.15;5.80;;;;;;;4.84;100.00;96506.25;1225542;75;2919035;-64
2023/11/17 02:44:44;;;;;;;5.50;4.30;;;;;;;5.21;100.00;96503.19;1225279;75;2919715;-63
2023/11/17 02:47:27;;;;;;;4.70;4.05;;;;;;;5.26;100.00;96492.44;1225446;75;2913294;-63
2023/11/17 02:50:01;;;;;;;4.10;3.50;;;;;;;5.11;100.00;96488.97;1225192;75;2915064;-64
2023/11/17 02:52:43;;;;;;;5.40;4.15;;;;;;;5.05;100.00;96505.16;1225593;75;2914116;-66
2023/11/17 02:55:18;;;;;;;8.40;6.40;;;;;;;4.86;100.00;96514.69;1225481;75;2917169;-64
2023/11/17 02:57:54;;;;;;;7.00;6.20;;;;;;;4.86;100.00;96518.13;1223898;75;2915222;-63
2023/11/17 03:00:26;;;;;;;6.75;6.05;;;;;;;5.19;100.00;96516.47;1224655;75;2930248;-62
2023/11/17 03:03:02;;;;;;;5.25;4.60;;;;;;;5.20;100.00;96502.44;1224372;75;2928153;-67
2023/11/17 03:05:36;;;;;;;6.25;4.65;;;;;;;5.39;100.00;96518.53;1225523;75;2922348;-64
2023/11/17 03:08:09;;;;;;;4.85;4.15;;;;;;;5.36;100.00;96524.91;1222968;75;2989491;-64
2023/11/17 03:10:42;;;;;;;4.60;3.45;;;;;;;5.40;100.00;96523.50;1224761;75;2918693;-62
2023/11/17 03:13:16;;;;;;;3.30;3.00;;;;;;;5.49;100.00;96522.66;1224825;75;2914996;-64
2023/11/17 03:15:49;;;;;;;3.30;2.55;;;;;;;5.53;100.00;96525.91;1224988;75;2927596;-61
2023/11/17 03:18:26;;;;;;;3.75;3.10;;;;;;;5.49;100.00;96522.66;1225329;75;2925263;-62
2023/11/17 03:21:01;;;;;;;3.85;3.45;;;;;;;5.46;100.00;96520.88;1224306;75;2918694;-64
2023/11/17 03:23:34;;;;;;;4.90;2.80;;;;;;;5.63;100.00;96532.00;1225353;75;2916944;-64
2023/11/17 03:26:07;;;;;;;4.70;3.00;;;;;;;5.34;100.00;96506.41;1224594;75;2927342;-62
2023/11/17 03:28:39;;;;;;;4.75;3.65;;;;;;;5.39;100.00;96515.81;1224427;75;2925529;-66
2023/11/17 03:31:14;;;;;;;3.95;3.25;;;;;;;5.61;100.00;96513.47;1224277;75;2929042;-64
2023/11/17 03:33:50;;;;;;;3.70;3.15;;;;;;;5.67;100.00;96513.56;1224423;75;2914259;-62
2023/11/17 03:36:22;;;;;;;4.30;3.15;;;;;;;5.40;100.00;96499.06;1224709;75;2919559;-63
2023/11/17 03:38:56;;;;;;;5.20;4.20;;;;;;;5.31;100.00;96469.31;1224843;75;2924336;-64
2023/11/17 03:41:28;;;;;;;4.80;3.70;;;;;;;5.29;100.00;96458.19;1223921;75;2925911;-65
2023/11/17 03:44:01;;;;;;;5.65;4.25;;;;;;;5.47;100.00;96476.97;1224695;75;2923401;-62
2023/11/17 03:46:33;;;;;;;4.25;3.40;;;;;;;5.57;100.00;96485.03;1224453;75;2919187;-63
2023/11/17 03:49:09;;;;;;;4.30;3.55;;;;;;;5.58;100.00;96483.78;1224628;75;2927310;-65
2023/11/17 03:51:41;;;;;;;6.00;4.05;;;;;;;5.51;100.00;96482.97;1224253;75;2922449;-63
2023/11/17 03:54:16;;;;;;;5.00;3.70;;;;;;;5.71;100.00;96486.97;1224547;75;2913527;-63
2023/11/17 03:56:52;;;;;;;4.05;3.00;;;;;;;5.75;100.00;96482.09;1224710;75;2924701;-64
2023/11/17 03:59:24;;;;;;;3.85;2.90;;;;;;;5.71;100.00;96479.56;1223691;75;2913353;-64
2023/11/17 04:01:57;;;;;;;2.50;2.10;;;;;;;5.77;100.00;96479.63;1225109;75;2920396;-66
2023/11/17 04:04:32;;;;;;;2.80;2.50;;;;;;;5.73;100.00;96493.41;1224346;75;2920426;-63
2023/11/17 04:07:05;;;;;;;3.90;3.45;;;;;;;5.46;100.00;96489.06;1224902;75;2913544;-64
2023/11/17 04:09:38;;;;;;;4.95;3.80;;;;;;;5.70;100.00;96488.94;1224280;75;2924224;-63
2023/11/17 04:12:11;;;;;;;3.60;3.10;;;;;;;5.72;100.00;96494.66;1224063;75;2918454;-64
2023/11/17 04:14:45;;;;;;;3.30;2.80;;;;;;;5.86;100.00;96495.06;1224972;75;2919089;-64
2023/11/17 04:17:18;;;;;;;3.75;3.15;;;;;;;5.83;100.00;96496.03;1224414;75;2920284;-63
2023/11/17 04:19:54;;;;;;;4.00;3.00;;;;;;;5.96;100.00;96501.91;1224445;75;2920301;-63
2023/11/17 04:22:26;;;;;;;2.95;2.65;;;;;;;5.96;100.00;96504.63;1224769;75;2919994;-65
2023/11/17 04:24:59;;;;;;;5.50;4.05;;;;;;;5.65;100.00;96524.13;1224024;75;2915937;-63
2023/11/17 04:27:31;;;;;;;5.80;4.70;;;;;;;5.70;100.00;96518.81;1224102;75;2946530;-66
2023/11/17 04:30:05;;;;;;;6.60;4.80;;;;;;;5.46;100.00;96534.44;1224798;83;2920241;-64
2023/11/17 04:32:39;;;;;;;7.85;5.40;;;;;;;5.22;100.00;96558.94;1224426;75;2918038;-63
2023/11/17 04:35:14;;;;;;;6.20;4.75;;;;;;;5.54;100.00;96565.44;1224447;75;2918889;-61
2023/11/17 04:37:47;;;;;;;6.60;4.95;;;;;;;5.60;100.00;96560.81;1225023;75;2921593;-63
2023/11/17 04:40:20;;;;;;;5.65;4.75;;;;;;;5.67;100.00;96562.44;1223897;75;2924243;-63
2023/11/17 04:42:53;;;;;;;7.50;6.10;;;;;;;5.50;100.00;96579.19;1224417;75;2922016;-62
2023/11/17 04:45:26;;;;;;;8.50;5.65;;;;;;;5.31;100.00;96581.31;1224778;75;2920540;-64
2023/11/17 04:47:59;;;;;;;6.75;6.05;;;;;;;5.56;100.00;96582.00;1224131;75;2926110;-64
2023/11/17 04:50:34;;;;;;;8.25;7.00;;;;;;;5.24;100.00;96586.38;1224099;75;2922746;-63
2023/11/17 04:53:07;;;;;;;19.30;13.40;;;;;;;5.18;100.00;96591.69;1224971;75;2918734;-66
2023/11/17 04:55:41;;;;;;;14.30;10.65;;;;;;;5.62;100.00;96582.84;1224496;75;2919454;-64
2023/11/17 04:58:15;;;;;;;12.60;9.65;;;;;;;5.55;100.00;96583.94;1224524;75;2916276;-63
2023/11/17 05:00:49;;;;;;;10.40;8.35;;;;;;;5.61;100.00;96575.19;1224447;75;2923608;-64
2023/11/17 05:03:21;;;;;;;9.95;7.50;;;;;;;5.41;100.00;96573.09;1221747;75;2941202;-63
2023/11/17 05:05:57;;;;;;;10.80;8.20;;;;;;;5.18;100.00;96572.72;1224911;75;2923934;-65
2023/11/17 05:08:29;;;;;;;7.30;6.50;;;;;;;5.16;100.00;96582.53;1223710;75;2922756;-65
2023/11/17 05:11:04;;;;;;;10.90;7.45;;;;;;;5.03;100.00;96578.13;1223770;75;2925562;-62
2023/11/17 05:13:38;;;;;;;8.50;6.95;;;;;;;5.09;100.00;96589.06;1221903;75;2925391;-63
2023/11/17 05:16:12;;;;;;;8.90;7.50;;;;;;;4.94;100.00;96591.75;1224018;75;2924671;-62
2023/11/17 05:18:47;;;;;;;10.25;8.75;;;;;;;5.12;100.00;96591.59;1223891;75;2938013;-61
2023/11/17 05:21:23;;;;;;;9.20;7.00;;;;;;;5.22;100.00;96592.28;1223190;75;2929475;-63
2023/11/17 05:23:55;;;;;;;8.85;7.75;;;;;;;5.52;100.00;96589.56;1223056;75;2926128;-62
2023/11/17 05:26:28;;;;;;;9.70;7.45;;;;;;;5.65;100.00;96583.84;1222437;75;2927031;-65
2023/11/17 05:29:01;;;;;;;7.25;6.00;;;;;;;5.65;100.00;96573.00;1222848;75;2934615;-67
2023/11/17 05:31:33;;;;;;;5.60;4.80;;;;;;;5.64;100.00;96580.41;1223663;75;2922838;-63
2023/11/17 05:34:08;;;;;;;11.60;8.65;;;;;;;5.26;100.00;96581.22;1225003;75;2959048;-64
2023/11/17 05:36:44;;;;;;;23.40;14.45;;;;;;;5.31;100.00;96581.31;1223489;75;2929438;-63
2023/11/17 05:39:18;;;;;;;23.30;15.55;;;;;;;5.65;100.00;96581.16;1224228;75;2923539;-61
2023/11/17 05:41:51;;;;;;;33.00;22.50;;;;;;;5.19;100.00;96587.00;1222737;75;2925320;-64
2023/11/17 05:44:25;;;;;;;33.05;22.90;;;;;;;5.11;100.00;96590.09;1223559;75;2922074;-64
2023/11/17 05:46:59;;;;;;;16.75;12.00;;;;;;;5.12;100.00;96597.03;1223175;75;2928926;-62
2023/11/17 05:49:31;;;;;;;19.25;14.70;;;;;;;5.30;100.00;96600.78;1223299;75;2924241;-61
2023/11/17 05:52:07;;;;;;;26.90;19.30;;;;;;;5.38;100.00;96601.91;1223989;75;2924826;-63
2023/11/17 05:54:43;;;;;;;23.05;16.00;;;;;;;5.53;100.00;96597.25;1223281;75;2922344;-63
2023/11/17 05:57:17;;;;;;;16.85;12.50;;;;;;;5.63;100.00;96597.91;1224186;75;2932846;-60
2023/11/17 05:59:49;;;;;;;13.00;10.05;;;;;;;5.54;100.00;96601.47;1224087;75;2917246;-63
2023/11/17 06:02:21;;;;;;;9.85;7.30;;;;;;;5.59;100.00;96618.31;1223645;75;2925901;-65
2023/11/17 06:04:54;;;;;;;7.75;6.00;;;;;;;5.59;100.00;96616.34;1224616;75;2919418;-64
2023/11/17 06:07:29;;;;;;;8.80;6.45;;;;;;;5.44;100.00;96632.63;1224817;75;2922684;-60
2023/11/17 06:10:04;;;;;;;8.95;6.85;;;;;;;5.62;100.00;96648.00;1224096;75;2929063;-64
2023/11/17 06:12:36;;;;;;;6.90;5.20;;;;;;;5.78;100.00;96651.47;1224331;75;2918943;-62
2023/11/17 06:15:11;;;;;;;6.80;4.65;;;;;;;5.82;100.00;96674.53;1224119;75;2916748;-67
2023/11/17 06:17:43;;;;;;;7.00;5.65;;;;;;;5.72;100.00;96673.88;1223732;75;2922676;-64
2023/11/17 06:20:16;;;;;;;7.60;5.10;;;;;;;5.82;100.00;96681.91;1224673;75;2919621;-63
2023/11/17 06:22:52;;;;;;;8.70;5.70;;;;;;;5.82;100.00;96695.47;1223088;75;2917202;-64
2023/11/17 06:25:25;;;;;;;7.10;5.45;;;;;;;6.07;100.00;96689.53;1223623;75;2932956;-64
2023/11/17 06:27:58;;;;;;;5.65;4.30;;;;;;;6.16;100.00;96692.16;1223952;75;2919765;-64
2023/11/17 06:30:30;;;;;;;5.15;3.85;;;;;;;5.98;100.00;96700.50;1222128;75;2925086;-62
2023/11/17 06:33:03;;;;;;;5.95;4.35;;;;;;;6.07;100.00;96719.41;1224858;75;2919851;-66
2023/11/17 06:35:36;;;;;;;9.05;6.45;;;;;;;6.26;100.00;96711.84;1224570;75;2917600;-64
2023/11/17 06:38:13;;;;;;;7.65;6.50;;;;;;;6.31;100.00;96707.72;1224274;75;2924302;-61
2023/11/17 06:40:46;;;;;;;6.15;4.55;;;;;;;6.44;100.00;96716.31;1224295;75;2923825;-65
2023/11/17 06:43:19;;;;;;;5.10;4.25;;;;;;;6.56;100.00;96725.38;1224229;75;2929083;-62
2023/11/17 06:45:52;;;;;;;5.70;4.30;;;;;;;6.50;100.00;96741.63;1224385;75;2921661;-64
2023/11/17 06:48:28;;;;;;;6.55;4.30;;;;;;;6.57;100.00;96743.22;1224534;75;2921384;-61
2023/11/17 06:51:00;;;;;;;4.25;3.40;;;;;;;6.63;100.00;96754.16;1223089;75;2919623;-64
2023/11/17 06:53:36;;;;;;;4.30;3.65;;;;;;;6.65;100.00;96757.91;1224158;75;2924627;-63
2023/11/17 06:56:09;;;;;;;6.85;4.35;;;;;;;6.71;100.00;96764.19;1223881;75;2926272;-64
2023/11/17 06:58:43;;;;;;;6.40;4.55;;;;;;;6.85;100.00;96762.66;1224099;75;2917227;-65
2023/11/17 07:01:18;;;;;;;5.95;3.75;;;;;;;7.02;100.00;96780.00;1224735;75;2921521;-62
2023/11/17 07:03:52;;;;;;;4.25;3.25;;;;;;;7.30;100.00;96778.88;1223608;75;2925199;-65
2023/11/17 07:06:27;;;;;;;4.60;2.50;;;;;;;7.87;100.00;96784.53;1221537;75;2927090;-63
2023/11/17 07:09:15;;;;;;;1.55;0.95;;;;;;;8.36;100.00;96794.94;1222087;75;2928129;-64
2023/11/17 07:11:49;;;;;;;1.10;0.90;;;;;;;8.75;100.00;96811.66;1222994;75;2925748;-64
2023/11/17 07:14:23;;;;;;;1.95;0.90;;;;;;;8.93;97.40;96822.25;1223017;75;2931199;-63
2023/11/17 07:16:56;;;;;;;1.45;0.65;;;;;;;9.10;95.04;96827.06;1223589;75;2921590;-63
2023/11/17 07:19:29;;;;;;;1.10;0.90;;;;;;;9.27;91.21;96838.13;1221331;75;2930242;-65
2023/11/17 07:22:01;;;;;;;2.20;0.90;;;;;;;9.36;92.45;96851.59;1222562;75;2951339;-64
2023/11/17 07:24:37;;;;;;;0.80;0.70;;;;;;;9.43;90.13;96851.13;1222506;75;2925054;-67
2023/11/17 07:27:11;;;;;;;1.60;0.90;;;;;;;9.48;88.39;96853.16;1223488;75;2921362;-61
2023/11/17 07:29:44;;;;;;;1.60;0.90;;;;;;;9.50;88.79;96864.34;1222060;75;2928469;-64
2023/11/17 07:32:16;;;;;;;1.10;0.75;;;;;;;9.47;86.92;96886.41;1223213;75;2924850;-64
2023/11/17 07:34:49;;;;;;;2.50;0.85;;;;;;;9.73;85.48;96878.88;1223593;75;2924644;-63
2023/11/17 07:37:24;;;;;;;1.70;0.65;;;;;;;9.71;82.77;96886.06;1223416;75;2926960;-65
2023/11/17 07:39:59;;;;;;;1.10;0.80;;;;;;;9.54;82.88;96911.28;1222981;75;2922925;-64
2023/11/17 07:42:32;;;;;;;0.90;0.80;;;;;;;9.54;83.13;96924.22;1223030;75;2927651;-66
2023/11/17 07:45:05;;;;;;;2.90;1.10;;;;;;;9.55;83.11;96936.66;1224156;75;2927395;-63
2023/11/17 07:47:41;;;;;;;1.70;0.90;;;;;;;9.64;81.36;96941.91;1223558;75;2937685;-65
2023/11/17 07:50:18;;;;;;;2.50;1.10;;;;;;;9.83;80.74;96961.41;1224180;75;2923614;-65
2023/11/17 07:52:51;;;;;;;1.50;1.00;;;;;;;9.83;80.70;96966.88;1223690;75;2922631;-65
2023/11/17 07:55:29;;;;;;;1.75;0.85;;;;;;;9.95;80.00;96979.38;1223128;75;2916228;-63
2023/11/17 07:58:01;;;;;;;3.45;0.95;;;;;;;9.93;78.31;96984.63;1222915;75;2926862;-61
2023/11/17 08:00:34;;;;;;;1.60;0.90;;;;;;;9.88;77.39;96973.63;1223430;75;2925471;-64
2023/11/17 08:03:10;;;;;;;1.30;1.00;;;;;;;9.80;77.33;96990.47;1223944;75;2922053;-63
2023/11/17 08:05:43;;;;;;;1.55;0.60;;;;;;;9.90;73.41;96985.56;1221903;75;2917239;-64
2023/11/17 08:08:16;;;;;;;1.30;0.70;;;;;;;9.81;71.35;96989.25;1223400;75;2926091;-64
2023/11/17 08:10:51;;;;;;;1.90;1.30;;;;;;;9.81;69.88;96996.69;1223437;75;2929633;-66
2023/11/17 08:13:25;;;;;;;1.75;0.85;;;;;;;10.02;70.77;97005.53;1224078;75;2904298;-65
2023/11/17 08:16:00;;;;;;;2.65;0.70;;;;;;;9.83;66.57;97013.34;1224033;75;2927136;-66
2023/11/17 08:18:33;;;;;;;0.60;0.60;;;;;;;9.95;66.31;97014.19;1223539;75;2923178;-64
2023/11/17 08:21:06;;;;;;;3.10;0.70;;;;;;;9.82;66.71;97022.81;1224216;75;2927461;-65
2023/11/17 08:23:39;;;;;;;0.75;0.65;;;;;;;9.92;66.57;97015.91;1223284;75;2928176;-66
2023/11/17 08:26:18;;;;;;;2.60;0.65;;;;;;;9.85;65.60;97026.56;1220947;75;2992991;-63
2023/11/17 08:28:51;;;;;;;1.45;0.70;;;;;;;9.93;66.48;97019.38;1222385;75;2927537;-60
2023/11/17 08:31:24;;;;;;;1.75;0.90;;;;;;;9.81;66.79;97032.22;1223322;75;2923657;-63
2023/11/17 08:33:56;;;;;;;2.60;0.70;;;;;;;9.86;65.54;97025.31;1224020;75;2919330;-63
2023/11/17 08:36:29;;;;;;;0.90;0.40;;;;;;;9.87;65.63;97033.03;1222061;75;2934146;-64
2023/11/17 08:39:02;;;;;;;0.90;0.70;;;;;;;9.78;65.31;97033.94;1221028;75;2932519;-64
2023/11/17 08:41:38;;;;;;;1.10;0.65;;;;;;;9.81;64.74;97043.16;1222479;75;2928050;-64
2023/11/17 08:44:11;;;;;;;0.95;0.60;;;;;;;9.88;64.03;97039.97;1223601;75;2851429;-61
2023/11/17 08:46:44;;;;;;;0.40;0.30;;;;;;;9.84;62.51;97042.22;1222597;75;2925144;-65
2023/11/17 08:49:17;;;;;;;0.60;0.50;;;;;;;9.81;62.03;97052.13;1222557;75;2926615;-61
2023/11/17 08:51:49;;;;;;;2.50;0.40;;;;;;;9.75;62.50;97064.25;1221986;75;2933163;-63
2023/11/17 08:54:22;;;;;;;1.65;0.60;;;;;;;9.66;62.47;97056.22;1222164;75;2968105;-62
2023/11/17 08:56:58;;;;;;;1.00;0.75;;;;;;;9.84;61.55;97077.75;1223300;75;2922599;-68
2023/11/17 08:59:30;;;;;;;1.05;0.65;;;;;;;9.77;62.11;97072.72;1221065;75;2932716;-64
2023/11/17 09:02:03;;;;;;;0.60;0.50;;;;;;;9.97;61.16;97071.88;1223106;75;2922889;-64
2023/11/17 09:04:36;;;;;;;0.70;0.50;;;;;;;9.60;60.08;97064.38;1223145;75;2919256;-65
2023/11/17 09:07:09;;;;;;;2.40;0.50;;;;;;;9.65;60.23;97082.06;1221539;75;2924861;-61
2023/11/17 09:09:42;;;;;;;0.40;0.40;;;;;;;9.63;60.68;97079.06;1222096;75;2928076;-65
2023/11/17 09:12:17;;;;;;;1.50;0.50;;;;;;;9.64;60.67;97080.53;1222585;75;2952267;-64
2023/11/17 09:14:51;;;;;;;1.05;0.60;;;;;;;9.50;59.49;97072.00;1222017;75;2927977;-63
2023/11/17 09:17:27;;;;;;;0.20;0.20;;;;;;;9.60;58.37;97102.63;1221699;75;2940027;-63
2023/11/17 09:20:01;;;;;;;0.95;0.35;;;;;;;9.54;58.50;97094.34;1219561;75;2926388;-64
2023/11/17 09:22:34;;;;;;;2.70;0.50;;;;;;;9.38;59.40;97106.63;1222123;75;2919911;-67
2023/11/17 09:25:13;;;;;;;0.20;0.20;;;;;;;9.37;58.61;97110.59;1223452;75;2922712;-62
2023/11/17 09:27:50;;;;;;;0.60;0.40;;;;;;;9.46;58.99;97119.88;1222355;75;2970531;-65
2023/11/17 09:30:24;;;;;;;2.20;0.50;;;;;;;9.45;58.74;97113.63;1223226;75;2931087;-65
2023/11/17 09:32:58;;;;;;;0.20;0.20;;;;;;;9.38;59.37;97109.38;1203834;75;4280160;-64
2023/11/17 09:35:32;;;;;;;0.90;0.40;;;;;;;9.45;59.11;97121.09;1222002;75;2935697;-64
2023/11/17 09:38:06;;;;;;;0.40;0.20;;;;;;;9.27;58.83;97114.69;1222370;75;2924191;-64
2023/11/17 09:40:36;;;;;;;0.55;0.20;;;;;;;9.44;58.65;97112.16;1223171;75;2925192;-63
2023/11/17 09:43:22;;;;;;;0.40;0.20;;;;;;;9.51;58.90;97124.66;1222542;75;2936221;-66
2023/11/17 09:45:56;;;;;;;0.30;0.20;;;;;;;9.33;58.92;97118.25;1222870;75;2923902;-67
2023/11/17 09:48:31;;;;;;;0.95;0.30;;;;;;;9.28;58.80;97134.56;1222225;75;2932338;-62
2023/11/17 09:51:05;;;;;;;0.35;0.30;;;;;;;9.34;58.73;97138.88;1221719;75;2922927;-65
2023/11/17 09:53:39;;;;;;;0.20;0.20;;;;;;;9.36;58.41;97133.69;1222941;75;2923973;-62
2023/11/17 09:56:14;;;;;;;0.45;0.25;;;;;;;9.34;58.47;97140.84;1222801;75;2929095;-64
2023/11/17 09:58:50;;;;;;;0.20;0.20;;;;;;;9.51;57.82;97146.50;1222629;75;2941538;-65
2023/11/17 10:01:24;;;;;;;0.60;0.30;;;;;;;9.54;58.52;97140.06;1222730;75;2925467;-65
2023/11/17 10:03:59;;;;;;;0.30;0.30;;;;;;;10.08;58.28;97148.53;1223575;75;2928298;-65
2023/11/17 10:06:33;;;;;;;2.20;0.40;;;;;;;9.59;57.31;97133.91;1223174;75;2925472;-64
2023/11/17 10:09:11;;;;;;;1.80;0.70;;;;;;;9.80;57.64;97149.03;1222525;75;2924745;-64
2023/11/17 10:11:49;;;;;;;0.40;0.35;;;;;;;10.33;56.97;97159.94;1224011;75;2929717;-63
2023/11/17 10:14:28;;;;;;;0.30;0.30;;;;;;;10.45;56.87;97165.00;1223101;75;2926533;-62
2023/11/17 10:17:03;;;;;;;0.45;0.30;;;;;;;10.97;55.16;97164.09;1223795;75;2924162;-64
2023/11/17 10:19:37;;;;;;;1.20;0.90;;;;;;;10.70;54.48;97165.41;1223094;75;2928125;-65
2023/11/17 10:22:12;;;;;;;0.90;0.70;;;;;;;11.43;53.15;97181.47;1223402;75;2931111;-64
2023/11/17 10:24:46;;;;;;;0.40;0.40;;;;;;;10.64;55.81;97179.06;1223259;75;2928083;-63
2023/11/17 10:27:20;;;;;;;0.90;0.90;;;;;;;11.15;54.10;97175.88;1223815;75;2913390;-64
2023/11/17 10:29:55;;;;;;;0.65;0.55;;;;;;;10.77;54.39;97175.16;1223834;75;2921620;-64
2023/11/17 10:32:32;;;;;;;1.15;0.60;;;;;;;10.93;54.30;97182.75;1223739;75;2924662;-61
2023/11/17 10:35:23;;;;;;;0.35;0.35;;;;;;;10.94;53.63;97178.75;1223030;75;2926719;-63
2023/11/17 10:37:58;;;;;;;0.65;0.40;;;;;;;10.68;53.58;97178.09;1223806;75;2926248;-63
2023/11/17 10:40:32;;;;;;;0.20;0.15;;;;;;;11.47;52.69;97188.22;1222934;75;2927404;-63
2023/11/17 10:43:14;;;;;;;0.50;0.30;;;;;;;11.65;52.16;97189.03;1223587;75;2922527;-64
2023/11/17 10:45:50;;;;;;;0.30;0.30;;;;;;;10.70;53.53;97178.34;1223580;75;2921206;-64
2023/11/17 10:48:22;;;;;;;0.25;0.25;;;;;;;10.84;52.41;97191.16;1223249;75;2926783;-65
2023/11/17 10:51:06;;;;;;;0.45;0.40;;;;;;;10.95;52.57;97191.22;1223592;75;2930158;-65
2023/11/17 10:53:39;;;;;;;0.75;0.30;;;;;;;10.71;54.23;97188.84;1223257;75;2924628;-66
2023/11/17 10:56:27;;;;;;;1.30;0.30;;;;;;;10.62;52.75;97191.75;1223433;75;2922311;-64
2023/11/17 10:58:59;;;;;;;1.55;0.40;;;;;;;10.61;53.17;97193.00;1222688;75;2927191;-64
2023/11/17 11:01:35;;;;;;;0.55;0.30;;;;;;;10.84;53.48;97197.38;1222524;75;2924427;-62
2023/11/17 11:04:14;;;;;;;0.30;0.25;;;;;;;11.17;52.00;97190.59;1223612;75;2933359;-66
2023/11/17 11:06:47;;;;;;;0.80;0.40;;;;;;;10.80;53.04;97190.63;1223353;75;2924425;-63
2023/11/17 11:09:23;;;;;;;0.85;0.50;;;;;;;10.88;53.34;97205.38;1223976;75;2932633;-67
2023/11/17 11:11:56;;;;;;;0.20;0.20;;;;;;;10.69;53.78;97199.50;1222245;75;2926549;-66
2023/11/17 11:14:29;;;;;;;0.75;0.40;;;;;;;10.77;54.00;97195.06;1223812;75;2930952;-64
2023/11/17 11:17:06;;;;;;;6.80;0.50;;;;;;;10.91;53.05;97203.63;1223886;75;2928588;-62
2023/11/17 11:19:41;;;;;;;0.90;0.50;;;;;;;11.02;54.10;97209.19;1224423;75;2931656;-63
2023/11/17 11:22:13;;;;;;;0.40;0.30;;;;;;;10.69;53.15;97204.25;1224472;75;2930509;-62
2023/11/17 11:24:47;;;;;;;0.70;0.40;;;;;;;10.68;53.75;97213.69;1224078;75;2933330;-65
2023/11/17 11:27:20;;;;;;;0.30;0.30;;;;;;;10.29;53.46;97201.19;1224072;75;2931207;-64
2023/11/17 11:29:53;;;;;;;0.75;0.30;;;;;;;10.49;52.72;97216.06;1223854;75;2924254;-65
2023/11/17 11:32:30;;;;;;;0.80;0.30;;;;;;;10.16;52.39;97206.28;1223291;75;2919605;-64
2023/11/17 11:35:03;;;;;;;0.30;0.20;;;;;;;10.07;52.78;97200.97;1223195;75;2920982;-64
2023/11/17 11:37:37;;;;;;;1.45;0.50;;;;;;;10.19;53.28;97200.59;1223875;75;2924170;-64
2023/11/17 11:40:12;;;;;;;0.80;0.45;;;;;;;10.32;53.33;97208.44;1223882;75;2923979;-64
2023/11/17 11:42:45;;;;;;;0.85;0.50;;;;;;;10.26;52.36;97206.88;1223857;75;2922030;-64
2023/11/17 11:45:20;;;;;;;0.50;0.20;;;;;;;10.60;51.51;97210.66;1222670;75;2928718;-63
2023/11/17 11:48:00;;;;;;;1.30;0.40;;;;;;;10.47;50.93;97211.06;1223911;75;2923429;-65
2023/11/17 11:50:38;;;;;;;2.70;0.20;;;;;;;10.07;50.33;97209.19;1223666;75;2927186;-63
2023/11/17 11:53:30;;;;;;;3.20;0.60;;;;;;;10.06;50.63;97221.38;1223535;75;2926937;-66